sensor_id;sensor_type;location;lat;lon;timestamp;P1;durP1;ratioP1;P2;durP2;ratioP2
38994;SDS011;24769;18.712;99.000;2023-03-14T00:00:07;95.00;;;91.00;;
38994;SDS011;24769;18.712;99.000;2023-03-14T00:02:38;82.60;;;80.60;;
38994;SDS011;24769;18.712;99.000;2023-03-14T00:05:05;86.40;;;83.20;;
38994;SDS011;24769;18.712;99.000;2023-03-14T00:07:34;84.40;;;78.60;;
38994;SDS011;24769;18.712;99.000;2023-03-14T00:10:05;83.60;;;82.60;;
38994;SDS011;24769;18.712;99.000;2023-03-14T00:12:34;90.80;;;89.60;;
38994;SDS011;24769;18.712;99.000;2023-03-14T00:15:01;90.60;;;87.60;;
38994;SDS011;24769;18.712;99.000;2023-03-14T00:17:30;92.00;;;89.60;;
38994;SDS011;24769;18.712;99.000;2023-03-14T00:19:56;85.40;;;82.00;;
38994;SDS011;24769;18.712;99.000;2023-03-14T00:22:30;81.40;;;77.20;;
38994;SDS011;24769;18.712;99.000;2023-03-14T00:24:57;91.80;;;90.60;;
38994;SDS011;24769;18.712;99.000;2023-03-14T00:27:24;92.20;;;89.00;;
38994;SDS011;24769;18.712;99.000;2023-03-14T00:29:50;91.20;;;90.60;;
38994;SDS011;24769;18.712;99.000;2023-03-14T00:32:17;93.40;;;93.00;;
38994;SDS011;24769;18.712;99.000;2023-03-14T00:34:43;89.80;;;88.40;;
38994;SDS011;24769;18.712;99.000;2023-03-14T00:37:10;91.20;;;86.80;;
38994;SDS011;24769;18.712;99.000;2023-03-14T00:39:37;90.00;;;87.60;;
38994;SDS011;24769;18.712;99.000;2023-03-14T00:42:03;91.20;;;87.20;;
38994;SDS011;24769;18.712;99.000;2023-03-14T00:44:30;92.40;;;90.20;;
38994;SDS011;24769;18.712;99.000;2023-03-14T00:46:57;88.00;;;86.40;;
38994;SDS011;24769;18.712;99.000;2023-03-14T00:49:24;91.80;;;90.40;;
38994;SDS011;24769;18.712;99.000;2023-03-14T00:51:50;81.20;;;79.20;;
38994;SDS011;24769;18.712;99.000;2023-03-14T00:54:18;85.80;;;85.00;;
38994;SDS011;24769;18.712;99.000;2023-03-14T00:56:45;87.80;;;84.80;;
38994;SDS011;24769;18.712;99.000;2023-03-14T00:59:12;81.80;;;78.80;;
38994;SDS011;24769;18.712;99.000;2023-03-14T01:01:39;82.40;;;79.20;;
38994;SDS011;24769;18.712;99.000;2023-03-14T01:04:07;81.00;;;78.60;;
38994;SDS011;24769;18.712;99.000;2023-03-14T01:06:33;84.20;;;81.40;;
38994;SDS011;24769;18.712;99.000;2023-03-14T01:09:00;81.40;;;79.20;;
38994;SDS011;24769;18.712;99.000;2023-03-14T01:11:31;80.20;;;77.00;;
38994;SDS011;24769;18.712;99.000;2023-03-14T01:13:59;82.40;;;80.00;;
38994;SDS011;24769;18.712;99.000;2023-03-14T01:16:28;76.80;;;71.60;;
38994;SDS011;24769;18.712;99.000;2023-03-14T01:18:57;80.80;;;76.60;;
38994;SDS011;24769;18.712;99.000;2023-03-14T01:21:25;75.20;;;68.60;;
38994;SDS011;24769;18.712;99.000;2023-03-14T01:23:56;77.40;;;72.20;;
38994;SDS011;24769;18.712;99.000;2023-03-14T01:26:24;81.80;;;80.80;;
38994;SDS011;24769;18.712;99.000;2023-03-14T01:28:54;77.80;;;72.20;;
38994;SDS011;24769;18.712;99.000;2023-03-14T01:31:21;80.60;;;77.20;;
38994;SDS011;24769;18.712;99.000;2023-03-14T01:33:49;80.20;;;77.20;;
38994;SDS011;24769;18.712;99.000;2023-03-14T01:36:15;80.00;;;78.00;;
38994;SDS011;24769;18.712;99.000;2023-03-14T01:38:42;81.80;;;78.60;;
38994;SDS011;24769;18.712;99.000;2023-03-14T01:41:17;80.20;;;77.80;;
38994;SDS011;24769;18.712;99.000;2023-03-14T01:43:46;74.60;;;66.60;;
38994;SDS011;24769;18.712;99.000;2023-03-14T01:46:20;80.80;;;77.60;;
38994;SDS011;24769;18.712;99.000;2023-03-14T01:48:53;80.80;;;75.20;;
38994;SDS011;24769;18.712;99.000;2023-03-14T01:51:27;76.00;;;68.40;;
38994;SDS011;24769;18.712;99.000;2023-03-14T01:54:02;77.40;;;72.40;;
38994;SDS011;24769;18.712;99.000;2023-03-14T01:56:37;74.00;;;64.80;;
38994;SDS011;24769;18.712;99.000;2023-03-14T01:59:07;77.80;;;71.80;;
38994;SDS011;24769;18.712;99.000;2023-03-14T02:01:36;79.00;;;74.20;;
38994;SDS011;24769;18.712;99.000;2023-03-14T02:04:04;75.20;;;66.20;;
38994;SDS011;24769;18.712;99.000;2023-03-14T02:06:39;76.20;;;67.20;;
38994;SDS011;24769;18.712;99.000;2023-03-14T02:09:09;77.80;;;70.60;;
38994;SDS011;24769;18.712;99.000;2023-03-14T02:11:35;73.80;;;64.80;;
38994;SDS011;24769;18.712;99.000;2023-03-14T02:14:02;73.00;;;64.60;;
38994;SDS011;24769;18.712;99.000;2023-03-14T02:16:30;74.60;;;65.40;;
38994;SDS011;24769;18.712;99.000;2023-03-14T02:18:57;76.80;;;70.20;;
38994;SDS011;24769;18.712;99.000;2023-03-14T02:29:30;73.80;;;64.20;;
38994;SDS011;24769;18.712;99.000;2023-03-14T02:32:00;73.75;;;64.50;;
38994;SDS011;24769;18.712;99.000;2023-03-14T02:34:27;70.50;;;61.00;;
38994;SDS011;24769;18.712;99.000;2023-03-14T02:36:54;73.75;;;65.25;;
38994;SDS011;24769;18.712;99.000;2023-03-14T02:39:22;70.00;;;58.75;;
38994;SDS011;24769;18.712;99.000;2023-03-14T02:41:54;73.25;;;63.75;;
38994;SDS011;24769;18.712;99.000;2023-03-14T02:44:21;72.50;;;62.00;;
38994;SDS011;24769;18.712;99.000;2023-03-14T02:46:47;74.50;;;66.25;;
38994;SDS011;24769;18.712;99.000;2023-03-14T02:49:14;68.00;;;56.25;;
38994;SDS011;24769;18.712;99.000;2023-03-14T02:51:42;68.25;;;58.00;;
38994;SDS011;24769;18.712;99.000;2023-03-14T02:54:10;66.50;;;54.50;;
38994;SDS011;24769;18.712;99.000;2023-03-14T02:56:37;74.50;;;67.50;;
38994;SDS011;24769;18.712;99.000;2023-03-14T02:59:04;68.50;;;58.25;;
38994;SDS011;24769;18.712;99.000;2023-03-14T03:01:32;72.75;;;65.00;;
38994;SDS011;24769;18.712;99.000;2023-03-14T03:03:59;74.25;;;66.50;;
38994;SDS011;24769;18.712;99.000;2023-03-14T03:06:26;71.00;;;62.25;;
38994;SDS011;24769;18.712;99.000;2023-03-14T03:08:53;73.50;;;63.75;;
38994;SDS011;24769;18.712;99.000;2023-03-14T03:11:19;71.50;;;62.50;;
38994;SDS011;24769;18.712;99.000;2023-03-14T03:13:46;73.50;;;65.75;;
38994;SDS011;24769;18.712;99.000;2023-03-14T03:16:12;72.50;;;64.25;;
38994;SDS011;24769;18.712;99.000;2023-03-14T03:18:40;72.25;;;62.00;;
38994;SDS011;24769;18.712;99.000;2023-03-14T03:21:06;70.50;;;61.25;;
38994;SDS011;24769;18.712;99.000;2023-03-14T03:23:34;70.25;;;60.25;;
38994;SDS011;24769;18.712;99.000;2023-03-14T03:26:01;69.00;;;59.00;;
38994;SDS011;24769;18.712;99.000;2023-03-14T03:28:28;73.25;;;66.00;;
38994;SDS011;24769;18.712;99.000;2023-03-14T03:30:54;72.00;;;63.75;;
38994;SDS011;24769;18.712;99.000;2023-03-14T03:33:22;75.50;;;69.25;;
38994;SDS011;24769;18.712;99.000;2023-03-14T03:35:50;72.25;;;63.75;;
38994;SDS011;24769;18.712;99.000;2023-03-14T03:38:17;69.00;;;58.75;;
38994;SDS011;24769;18.712;99.000;2023-03-14T03:40:45;70.50;;;61.75;;
38994;SDS011;24769;18.712;99.000;2023-03-14T03:43:11;73.75;;;65.25;;
38994;SDS011;24769;18.712;99.000;2023-03-14T03:45:38;68.25;;;56.75;;
38994;SDS011;24769;18.712;99.000;2023-03-14T03:48:05;75.50;;;68.50;;
38994;SDS011;24769;18.712;99.000;2023-03-14T03:50:32;74.75;;;66.75;;
38994;SDS011;24769;18.712;99.000;2023-03-14T03:52:58;73.25;;;62.75;;
38994;SDS011;24769;18.712;99.000;2023-03-14T03:55:25;71.75;;;61.75;;
38994;SDS011;24769;18.712;99.000;2023-03-14T03:57:53;74.25;;;67.50;;
38994;SDS011;24769;18.712;99.000;2023-03-14T04:00:20;70.50;;;62.25;;
38994;SDS011;24769;18.712;99.000;2023-03-14T04:02:46;70.00;;;59.75;;
38994;SDS011;24769;18.712;99.000;2023-03-14T04:05:13;71.00;;;63.00;;
38994;SDS011;24769;18.712;99.000;2023-03-14T04:07:39;72.00;;;64.00;;
38994;SDS011;24769;18.712;99.000;2023-03-14T04:10:06;70.75;;;62.25;;
38994;SDS011;24769;18.712;99.000;2023-03-14T04:12:33;74.75;;;69.25;;
38994;SDS011;24769;18.712;99.000;2023-03-14T04:14:59;71.75;;;63.25;;
38994;SDS011;24769;18.712;99.000;2023-03-14T04:17:26;71.00;;;62.50;;
38994;SDS011;24769;18.712;99.000;2023-03-14T04:19:52;73.25;;;66.75;;
38994;SDS011;24769;18.712;99.000;2023-03-14T04:22:19;73.75;;;67.00;;
38994;SDS011;24769;18.712;99.000;2023-03-14T04:24:46;72.50;;;65.25;;
38994;SDS011;24769;18.712;99.000;2023-03-14T04:27:12;75.25;;;70.00;;
38994;SDS011;24769;18.712;99.000;2023-03-14T04:29:40;75.25;;;69.75;;
38994;SDS011;24769;18.712;99.000;2023-03-14T04:32:07;76.00;;;70.50;;
38994;SDS011;24769;18.712;99.000;2023-03-14T04:34:34;72.25;;;64.75;;
38994;SDS011;24769;18.712;99.000;2023-03-14T04:37:00;75.75;;;71.25;;
38994;SDS011;24769;18.712;99.000;2023-03-14T04:39:27;75.50;;;70.00;;
38994;SDS011;24769;18.712;99.000;2023-03-14T04:41:53;77.50;;;72.00;;
38994;SDS011;24769;18.712;99.000;2023-03-14T04:44:20;75.25;;;70.25;;
38994;SDS011;24769;18.712;99.000;2023-03-14T04:46:46;76.00;;;71.00;;
38994;SDS011;24769;18.712;99.000;2023-03-14T04:49:13;77.50;;;72.75;;
38994;SDS011;24769;18.712;99.000;2023-03-14T04:51:39;74.75;;;68.75;;
38994;SDS011;24769;18.712;99.000;2023-03-14T04:54:07;86.50;;;81.75;;
38994;SDS011;24769;18.712;99.000;2023-03-14T04:56:33;74.75;;;69.25;;
38994;SDS011;24769;18.712;99.000;2023-03-14T04:59:00;75.50;;;69.50;;
38994;SDS011;24769;18.712;99.000;2023-03-14T05:01:26;75.75;;;71.50;;
38994;SDS011;24769;18.712;99.000;2023-03-14T05:03:53;70.50;;;62.00;;
38994;SDS011;24769;18.712;99.000;2023-03-14T05:06:19;74.50;;;69.25;;
38994;SDS011;24769;18.712;99.000;2023-03-14T05:08:46;75.25;;;69.50;;
38994;SDS011;24769;18.712;99.000;2023-03-14T05:11:13;75.00;;;67.25;;
38994;SDS011;24769;18.712;99.000;2023-03-14T05:13:39;74.50;;;68.25;;
38994;SDS011;24769;18.712;99.000;2023-03-14T05:16:06;73.50;;;67.25;;
38994;SDS011;24769;18.712;99.000;2023-03-14T05:18:35;72.75;;;64.25;;
38994;SDS011;24769;18.712;99.000;2023-03-14T05:21:02;72.25;;;64.25;;
38994;SDS011;24769;18.712;99.000;2023-03-14T05:23:29;68.00;;;58.20;;
38994;SDS011;24769;18.712;99.000;2023-03-14T05:25:55;67.75;;;58.25;;
38994;SDS011;24769;18.712;99.000;2023-03-14T05:28:22;68.00;;;58.00;;
38994;SDS011;24769;18.712;99.000;2023-03-14T05:30:49;67.25;;;57.50;;
38994;SDS011;24769;18.712;99.000;2023-03-14T05:33:15;65.75;;;53.50;;
38994;SDS011;24769;18.712;99.000;2023-03-14T05:35:42;64.75;;;53.00;;
38994;SDS011;24769;18.712;99.000;2023-03-14T05:38:08;70.00;;;61.75;;
38994;SDS011;24769;18.712;99.000;2023-03-14T05:40:35;67.75;;;58.25;;
38994;SDS011;24769;18.712;99.000;2023-03-14T05:43:01;66.00;;;55.00;;
38994;SDS011;24769;18.712;99.000;2023-03-14T05:45:28;67.75;;;58.00;;
38994;SDS011;24769;18.712;99.000;2023-03-14T05:47:54;67.75;;;57.50;;
38994;SDS011;24769;18.712;99.000;2023-03-14T05:50:21;69.00;;;60.00;;
38994;SDS011;24769;18.712;99.000;2023-03-14T05:52:48;67.00;;;57.00;;
38994;SDS011;24769;18.712;99.000;2023-03-14T05:55:14;69.20;;;59.40;;
38994;SDS011;24769;18.712;99.000;2023-03-14T05:57:40;66.20;;;55.20;;
38994;SDS011;24769;18.712;99.000;2023-03-14T06:00:07;69.40;;;60.40;;
38994;SDS011;24769;18.712;99.000;2023-03-14T06:02:34;69.60;;;60.60;;
38994;SDS011;24769;18.712;99.000;2023-03-14T06:05:01;60.80;;;50.40;;
38994;SDS011;24769;18.712;99.000;2023-03-14T06:07:28;68.20;;;58.20;;
38994;SDS011;24769;18.712;99.000;2023-03-14T06:09:54;65.60;;;54.40;;
38994;SDS011;24769;18.712;99.000;2023-03-14T06:12:21;67.00;;;56.80;;
38994;SDS011;24769;18.712;99.000;2023-03-14T06:14:47;65.00;;;54.00;;
38994;SDS011;24769;18.712;99.000;2023-03-14T06:17:14;65.80;;;54.40;;
38994;SDS011;24769;18.712;99.000;2023-03-14T06:19:41;63.80;;;52.20;;
38994;SDS011;24769;18.712;99.000;2023-03-14T06:22:07;65.00;;;53.60;;
38994;SDS011;24769;18.712;99.000;2023-03-14T06:24:34;63.00;;;52.20;;
38994;SDS011;24769;18.712;99.000;2023-03-14T06:27:00;61.00;;;50.20;;
38994;SDS011;24769;18.712;99.000;2023-03-14T06:29:28;62.20;;;51.20;;
38994;SDS011;24769;18.712;99.000;2023-03-14T06:31:55;60.00;;;49.80;;
38994;SDS011;24769;18.712;99.000;2023-03-14T06:34:22;60.00;;;49.80;;
38994;SDS011;24769;18.712;99.000;2023-03-14T06:36:48;64.20;;;52.80;;
38994;SDS011;24769;18.712;99.000;2023-03-14T06:39:15;58.40;;;48.20;;
38994;SDS011;24769;18.712;99.000;2023-03-14T06:41:41;58.20;;;48.60;;
38994;SDS011;24769;18.712;99.000;2023-03-14T06:44:08;61.40;;;50.80;;
38994;SDS011;24769;18.712;99.000;2023-03-14T06:46:35;63.00;;;52.00;;
38994;SDS011;24769;18.712;99.000;2023-03-14T06:49:01;62.20;;;51.20;;
38994;SDS011;24769;18.712;99.000;2023-03-14T06:51:28;59.60;;;49.40;;
38994;SDS011;24769;18.712;99.000;2023-03-14T06:53:54;62.00;;;51.00;;
38994;SDS011;24769;18.712;99.000;2023-03-14T06:56:21;62.80;;;52.20;;
38994;SDS011;24769;18.712;99.000;2023-03-14T06:58:47;61.00;;;50.20;;
38994;SDS011;24769;18.712;99.000;2023-03-14T07:01:20;62.20;;;51.60;;
38994;SDS011;24769;18.712;99.000;2023-03-14T07:03:49;57.00;;;47.80;;
38994;SDS011;24769;18.712;99.000;2023-03-14T07:06:16;62.80;;;52.20;;
38994;SDS011;24769;18.712;99.000;2023-03-14T07:08:42;62.60;;;52.00;;
38994;SDS011;24769;18.712;99.000;2023-03-14T07:11:09;61.00;;;50.20;;
38994;SDS011;24769;18.712;99.000;2023-03-14T07:13:39;64.20;;;52.80;;
38994;SDS011;24769;18.712;99.000;2023-03-14T07:16:06;56.60;;;46.60;;
38994;SDS011;24769;18.712;99.000;2023-03-14T07:18:32;63.40;;;52.00;;
38994;SDS011;24769;18.712;99.000;2023-03-14T07:20:59;62.00;;;51.00;;
38994;SDS011;24769;18.712;99.000;2023-03-14T07:23:25;62.40;;;51.40;;
38994;SDS011;24769;18.712;99.000;2023-03-14T07:25:52;62.20;;;51.60;;
38994;SDS011;24769;18.712;99.000;2023-03-14T07:28:19;61.00;;;50.80;;
38994;SDS011;24769;18.712;99.000;2023-03-14T07:30:46;65.40;;;53.20;;
38994;SDS011;24769;18.712;99.000;2023-03-14T07:33:13;62.00;;;51.20;;
38994;SDS011;24769;18.712;99.000;2023-03-14T07:35:39;58.20;;;48.40;;
38994;SDS011;24769;18.712;99.000;2023-03-14T07:38:06;59.20;;;49.60;;
38994;SDS011;24769;18.712;99.000;2023-03-14T07:40:32;62.00;;;51.40;;
38994;SDS011;24769;18.712;99.000;2023-03-14T07:42:58;63.80;;;52.60;;
38994;SDS011;24769;18.712;99.000;2023-03-14T07:45:25;62.40;;;51.20;;
38994;SDS011;24769;18.712;99.000;2023-03-14T07:47:51;62.60;;;51.20;;
38994;SDS011;24769;18.712;99.000;2023-03-14T07:50:23;63.80;;;52.60;;
38994;SDS011;24769;18.712;99.000;2023-03-14T07:52:50;64.00;;;52.60;;
38994;SDS011;24769;18.712;99.000;2023-03-14T07:55:17;63.00;;;51.80;;
38994;SDS011;24769;18.712;99.000;2023-03-14T07:57:43;65.40;;;53.40;;
38994;SDS011;24769;18.712;99.000;2023-03-14T08:00:10;62.80;;;51.60;;
38994;SDS011;24769;18.712;99.000;2023-03-14T08:02:38;61.40;;;50.40;;
38994;SDS011;24769;18.712;99.000;2023-03-14T08:05:05;63.40;;;52.00;;
38994;SDS011;24769;18.712;99.000;2023-03-14T08:07:32;63.80;;;52.20;;
38994;SDS011;24769;18.712;99.000;2023-03-14T08:09:59;64.80;;;52.80;;
38994;SDS011;24769;18.712;99.000;2023-03-14T08:12:25;62.60;;;52.00;;
38994;SDS011;24769;18.712;99.000;2023-03-14T08:14:52;63.80;;;52.80;;
38994;SDS011;24769;18.712;99.000;2023-03-14T08:17:18;56.20;;;47.20;;
38994;SDS011;24769;18.712;99.000;2023-03-14T08:19:45;64.80;;;53.20;;
38994;SDS011;24769;18.712;99.000;2023-03-14T08:22:11;63.00;;;52.00;;
38994;SDS011;24769;18.712;99.000;2023-03-14T08:24:38;60.20;;;49.80;;
38994;SDS011;24769;18.712;99.000;2023-03-14T08:27:06;58.20;;;48.40;;
38994;SDS011;24769;18.712;99.000;2023-03-14T08:29:35;63.80;;;53.00;;
38994;SDS011;24769;18.712;99.000;2023-03-14T08:32:01;65.40;;;53.40;;
38994;SDS011;24769;18.712;99.000;2023-03-14T08:34:28;64.00;;;52.00;;
38994;SDS011;24769;18.712;99.000;2023-03-14T08:36:54;63.60;;;52.20;;
38994;SDS011;24769;18.712;99.000;2023-03-14T08:39:22;63.20;;;51.80;;
38994;SDS011;24769;18.712;99.000;2023-03-14T08:41:49;62.00;;;51.40;;
38994;SDS011;24769;18.712;99.000;2023-03-14T08:44:15;63.40;;;51.60;;
38994;SDS011;24769;18.712;99.000;2023-03-14T08:46:42;60.20;;;49.60;;
38994;SDS011;24769;18.712;99.000;2023-03-14T08:49:09;61.60;;;51.20;;
38994;SDS011;24769;18.712;99.000;2023-03-14T08:51:35;60.20;;;50.00;;
38994;SDS011;24769;18.712;99.000;2023-03-14T08:54:02;56.40;;;47.40;;
38994;SDS011;24769;18.712;99.000;2023-03-14T08:56:29;61.20;;;50.60;;
38994;SDS011;24769;18.712;99.000;2023-03-14T08:58:55;66.20;;;55.00;;
38994;SDS011;24769;18.712;99.000;2023-03-14T09:01:21;64.60;;;53.40;;
38994;SDS011;24769;18.712;99.000;2023-03-14T09:03:50;62.60;;;51.80;;
38994;SDS011;24769;18.712;99.000;2023-03-14T09:06:16;62.00;;;51.20;;
38994;SDS011;24769;18.712;99.000;2023-03-14T09:08:43;63.00;;;52.00;;
38994;SDS011;24769;18.712;99.000;2023-03-14T09:11:11;65.40;;;54.20;;
38994;SDS011;24769;18.712;99.000;2023-03-14T09:13:38;62.40;;;51.60;;
38994;SDS011;24769;18.712;99.000;2023-03-14T09:16:05;61.20;;;50.20;;
38994;SDS011;24769;18.712;99.000;2023-03-14T09:18:32;65.00;;;53.60;;
38994;SDS011;24769;18.712;99.000;2023-03-14T09:20:59;64.40;;;53.00;;
38994;SDS011;24769;18.712;99.000;2023-03-14T09:23:25;61.60;;;51.20;;
38994;SDS011;24769;18.712;99.000;2023-03-14T09:25:58;64.00;;;53.00;;
38994;SDS011;24769;18.712;99.000;2023-03-14T09:28:26;63.20;;;52.20;;
38994;SDS011;24769;18.712;99.000;2023-03-14T09:30:53;62.60;;;51.20;;
38994;SDS011;24769;18.712;99.000;2023-03-14T09:33:19;62.20;;;51.80;;
38994;SDS011;24769;18.712;99.000;2023-03-14T09:35:46;56.40;;;47.20;;
38994;SDS011;24769;18.712;99.000;2023-03-14T09:38:12;62.60;;;51.80;;
38994;SDS011;24769;18.712;99.000;2023-03-14T09:40:39;63.20;;;52.20;;
38994;SDS011;24769;18.712;99.000;2023-03-14T09:43:05;62.40;;;51.20;;
38994;SDS011;24769;18.712;99.000;2023-03-14T09:45:36;63.50;;;52.75;;
38994;SDS011;24769;18.712;99.000;2023-03-14T09:48:05;61.00;;;50.60;;
38994;SDS011;24769;18.712;99.000;2023-03-14T09:50:40;62.40;;;51.40;;
38994;SDS011;24769;18.712;99.000;2023-03-14T09:53:11;59.80;;;50.00;;
38994;SDS011;24769;18.712;99.000;2023-03-14T09:55:42;63.80;;;52.40;;
38994;SDS011;24769;18.712;99.000;2023-03-14T09:58:14;62.60;;;51.60;;
38994;SDS011;24769;18.712;99.000;2023-03-14T10:00:44;64.00;;;52.80;;
38994;SDS011;24769;18.712;99.000;2023-03-14T10:05:37;63.00;;;52.00;;
38994;SDS011;24769;18.712;99.000;2023-03-14T10:08:05;63.20;;;52.20;;
38994;SDS011;24769;18.712;99.000;2023-03-14T10:10:31;61.75;;;51.50;;
38994;SDS011;24769;18.712;99.000;2023-03-14T10:12:59;63.20;;;52.20;;
38994;SDS011;24769;18.712;99.000;2023-03-14T10:15:34;60.75;;;50.00;;
38994;SDS011;24769;18.712;99.000;2023-03-14T10:18:02;62.25;;;50.75;;
38994;SDS011;24769;18.712;99.000;2023-03-14T10:20:38;60.40;;;50.20;;
38994;SDS011;24769;18.712;99.000;2023-03-14T10:25:41;62.75;;;51.75;;
38994;SDS011;24769;18.712;99.000;2023-03-14T10:28:25;63.50;;;52.50;;
38994;SDS011;24769;18.712;99.000;2023-03-14T10:30:57;57.75;;;48.25;;
38994;SDS011;24769;18.712;99.000;2023-03-14T10:33:25;62.75;;;52.25;;
38994;SDS011;24769;18.712;99.000;2023-03-14T10:38:22;62.00;;;51.00;;
38994;SDS011;24769;18.712;99.000;2023-03-14T10:40:51;61.50;;;51.50;;
38994;SDS011;24769;18.712;99.000;2023-03-14T10:43:21;60.25;;;50.25;;
38994;SDS011;24769;18.712;99.000;2023-03-14T10:45:59;61.50;;;51.00;;
38994;SDS011;24769;18.712;99.000;2023-03-14T10:48:43;58.50;;;48.50;;
38994;SDS011;24769;18.712;99.000;2023-03-14T10:56:21;62.50;;;51.25;;
38994;SDS011;24769;18.712;99.000;2023-03-14T10:58:50;62.75;;;52.00;;
38994;SDS011;24769;18.712;99.000;2023-03-14T11:06:52;64.25;;;52.75;;
38994;SDS011;24769;18.712;99.000;2023-03-14T11:09:33;64.75;;;51.50;;
38994;SDS011;24769;18.712;99.000;2023-03-14T11:14:54;62.50;;;51.00;;
38994;SDS011;24769;18.712;99.000;2023-03-14T11:28:13;66.25;;;54.75;;
38994;SDS011;24769;18.712;99.000;2023-03-14T11:33:38;76.75;;;71.75;;
38994;SDS011;24769;18.712;99.000;2023-03-14T11:36:10;98.00;;;97.00;;
38994;SDS011;24769;18.712;99.000;2023-03-14T11:38:49;102.80;;;99.00;;
38994;SDS011;24769;18.712;99.000;2023-03-14T11:41:20;81.60;;;79.20;;
38994;SDS011;24769;18.712;99.000;2023-03-14T11:43:54;78.80;;;73.80;;
38994;SDS011;24769;18.712;99.000;2023-03-14T11:46:25;74.00;;;67.00;;
38994;SDS011;24769;18.712;99.000;2023-03-14T11:49:36;77.25;;;73.00;;
38994;SDS011;24769;18.712;99.000;2023-03-14T11:52:11;76.40;;;71.60;;
38994;SDS011;24769;18.712;99.000;2023-03-14T11:57:47;85.40;;;84.40;;
38994;SDS011;24769;18.712;99.000;2023-03-14T12:00:17;83.80;;;81.80;;
38994;SDS011;24769;18.712;99.000;2023-03-14T12:10:38;74.75;;;67.25;;
38994;SDS011;24769;18.712;99.000;2023-03-14T12:13:13;77.50;;;70.00;;
38994;SDS011;24769;18.712;99.000;2023-03-14T12:15:46;78.25;;;72.25;;
38994;SDS011;24769;18.712;99.000;2023-03-14T12:18:26;74.75;;;66.00;;
38994;SDS011;24769;18.712;99.000;2023-03-14T12:21:08;71.75;;;60.25;;
38994;SDS011;24769;18.712;99.000;2023-03-14T12:23:51;65.25;;;54.00;;
38994;SDS011;24769;18.712;99.000;2023-03-14T12:26:21;71.00;;;61.00;;
38994;SDS011;24769;18.712;99.000;2023-03-14T12:29:09;73.75;;;64.75;;
38994;SDS011;24769;18.712;99.000;2023-03-14T12:31:41;70.50;;;60.25;;
38994;SDS011;24769;18.712;99.000;2023-03-14T12:42:12;71.25;;;61.50;;
38994;SDS011;24769;18.712;99.000;2023-03-14T12:44:43;78.50;;;71.50;;
38994;SDS011;24769;18.712;99.000;2023-03-14T12:49:48;73.75;;;64.00;;
38994;SDS011;24769;18.712;99.000;2023-03-14T12:52:36;74.00;;;63.75;;
38994;SDS011;24769;18.712;99.000;2023-03-14T12:55:29;72.00;;;63.25;;
38994;SDS011;24769;18.712;99.000;2023-03-14T12:58:54;74.40;;;66.80;;
38994;SDS011;24769;18.712;99.000;2023-03-14T13:01:03;72.20;;;63.20;;
38994;SDS011;24769;18.712;99.000;2023-03-14T13:04:05;74.20;;;66.20;;
38994;SDS011;24769;18.712;99.000;2023-03-14T13:12:19;79.80;;;75.00;;
38994;SDS011;24769;18.712;99.000;2023-03-14T13:14:49;78.80;;;72.60;;
38994;SDS011;24769;18.712;99.000;2023-03-14T13:17:22;74.80;;;67.20;;
38994;SDS011;24769;18.712;99.000;2023-03-14T13:19:57;77.40;;;72.40;;
38994;SDS011;24769;18.712;99.000;2023-03-14T13:22:37;75.80;;;69.00;;
38994;SDS011;24769;18.712;99.000;2023-03-14T13:25:09;74.00;;;65.20;;
38994;SDS011;24769;18.712;99.000;2023-03-14T13:27:36;76.40;;;70.40;;
38994;SDS011;24769;18.712;99.000;2023-03-14T13:32:49;76.00;;;69.60;;
38994;SDS011;24769;18.712;99.000;2023-03-14T13:35:18;76.40;;;70.00;;
38994;SDS011;24769;18.712;99.000;2023-03-14T13:37:59;79.20;;;74.40;;
38994;SDS011;24769;18.712;99.000;2023-03-14T13:40:31;80.00;;;75.60;;
38994;SDS011;24769;18.712;99.000;2023-03-14T13:43:01;75.20;;;67.40;;
38994;SDS011;24769;18.712;99.000;2023-03-14T13:45:50;77.40;;;72.20;;
38994;SDS011;24769;18.712;99.000;2023-03-14T13:48:45;76.20;;;68.60;;
38994;SDS011;24769;18.712;99.000;2023-03-14T13:51:17;75.00;;;68.40;;
38994;SDS011;24769;18.712;99.000;2023-03-14T13:53:50;78.40;;;73.20;;
38994;SDS011;24769;18.712;99.000;2023-03-14T13:56:19;76.00;;;69.00;;
38994;SDS011;24769;18.712;99.000;2023-03-14T13:58:47;77.40;;;70.80;;
38994;SDS011;24769;18.712;99.000;2023-03-14T14:01:18;78.60;;;72.40;;
38994;SDS011;24769;18.712;99.000;2023-03-14T14:03:50;74.80;;;67.60;;
38994;SDS011;24769;18.712;99.000;2023-03-14T14:06:35;72.20;;;63.00;;
38994;SDS011;24769;18.712;99.000;2023-03-14T14:09:36;80.20;;;75.60;;
38994;SDS011;24769;18.712;99.000;2023-03-14T14:12:02;78.60;;;74.60;;
38994;SDS011;24769;18.712;99.000;2023-03-14T14:14:58;79.00;;;72.00;;
38994;SDS011;24769;18.712;99.000;2023-03-14T14:17:31;77.80;;;71.80;;
38994;SDS011;24769;18.712;99.000;2023-03-14T14:20:06;74.20;;;66.80;;
38994;SDS011;24769;18.712;99.000;2023-03-14T14:22:40;82.20;;;79.80;;
38994;SDS011;24769;18.712;99.000;2023-03-14T14:25:11;81.80;;;78.60;;
38994;SDS011;24769;18.712;99.000;2023-03-14T14:27:44;76.20;;;67.20;;
38994;SDS011;24769;18.712;99.000;2023-03-14T14:32:43;76.40;;;69.60;;
38994;SDS011;24769;18.712;99.000;2023-03-14T14:35:21;74.20;;;64.40;;
38994;SDS011;24769;18.712;99.000;2023-03-14T14:37:52;78.80;;;73.00;;
38994;SDS011;24769;18.712;99.000;2023-03-14T14:40:20;78.60;;;72.20;;
38994;SDS011;24769;18.712;99.000;2023-03-14T14:42:51;77.80;;;70.60;;
38994;SDS011;24769;18.712;99.000;2023-03-14T14:45:19;83.40;;;81.60;;
38994;SDS011;24769;18.712;99.000;2023-03-14T14:47:49;82.60;;;80.40;;
38994;SDS011;24769;18.712;99.000;2023-03-14T14:52:56;80.80;;;77.60;;
38994;SDS011;24769;18.712;99.000;2023-03-14T14:55:28;78.60;;;72.60;;
38994;SDS011;24769;18.712;99.000;2023-03-14T14:58:11;79.40;;;72.00;;
38994;SDS011;24769;18.712;99.000;2023-03-14T15:00:53;80.60;;;77.40;;
38994;SDS011;24769;18.712;99.000;2023-03-14T15:03:23;78.00;;;72.60;;
38994;SDS011;24769;18.712;99.000;2023-03-14T15:05:54;77.20;;;71.40;;
38994;SDS011;24769;18.712;99.000;2023-03-14T15:08:21;79.80;;;74.00;;
38994;SDS011;24769;18.712;99.000;2023-03-14T15:10:49;79.20;;;75.40;;
38994;SDS011;24769;18.712;99.000;2023-03-14T15:13:16;79.60;;;74.80;;
38994;SDS011;24769;18.712;99.000;2023-03-14T15:15:43;80.80;;;77.20;;
38994;SDS011;24769;18.712;99.000;2023-03-14T15:18:15;81.40;;;77.00;;
38994;SDS011;24769;18.712;99.000;2023-03-14T15:20:44;79.20;;;72.20;;
38994;SDS011;24769;18.712;99.000;2023-03-14T15:23:15;80.00;;;75.40;;
38994;SDS011;24769;18.712;99.000;2023-03-14T15:25:43;77.60;;;71.20;;
38994;SDS011;24769;18.712;99.000;2023-03-14T15:30:47;74.20;;;63.60;;
38994;SDS011;24769;18.712;99.000;2023-03-14T15:33:24;80.60;;;77.40;;
38994;SDS011;24769;18.712;99.000;2023-03-14T15:35:52;84.00;;;81.20;;
38994;SDS011;24769;18.712;99.000;2023-03-14T15:38:20;84.40;;;83.00;;
38994;SDS011;24769;18.712;99.000;2023-03-14T15:40:48;76.60;;;67.60;;